Terminal Aerodrome Forecast
Issued by NWS

Home | Current Version | Previous Version | Graphics & Text | Print | Product List | Glossary On
Versions: 1 2 3 4 5 6 7 8 9 10 11 12 13 14 15 16 17
000
FTUS43 KUNR 211700
TAFGCC
TAF
KGCC 211720Z 2118/2218 18009KT P6SM SKC
     FM220000 14007KT P6SM SKC
     FM220500 17011KT P6SM SKC
     FM221700 22015KT P6SM BKN100=

USA.gov is the U.S. government's official web portal to all federal, state and local government web resources and services.